Terminal Aerodrome Forecast
Issued by NWS

Home | Current Version | Previous Version | Text Only | Print | Product List | Glossary On
Versions: 1 2 3 4 5 6 7 8 9 10 11 12 13 14 15 16 17 18 19 20 21 22 23 24 25 26 27 28 29 30 31 32 33
676
FTUS46 KEKA 210628 AAA
TAFUKI
TAF AMD
KUKI 210628Z 2106/2206 17011G21KT 6SM -RA BKN035 OVC050
     FM210900 15012G21KT 5SM -SHRA VCTS BKN025CB
     FM211200 20010G18KT 6SM -SHRA BR BKN015
     FM211500 14005KT 6SM -SHRA BKN030
     FM212000 28008KT P6SM VCTS BKN035CB
     FM220200 31005KT P6SM -SHRA VCTS BKN040CB=

USA.gov is the U.S. government's official web portal to all federal, state and local government web resources and services.